sensor_id;sensor_type;location;lat;lon;timestamp;pressure;altitude;pressure_sealevel;temperature;humidity
3260;BME280;68938;48.150;14.004;2023-05-21T00:00:02;97950.16;;;20.55;57.51
3260;BME280;68938;48.150;14.004;2023-05-21T00:02:30;97946.53;;;20.45;58.17
3260;BME280;68938;48.150;14.004;2023-05-21T00:04:56;97943.03;;;20.57;58.61
3260;BME280;68938;48.150;14.004;2023-05-21T00:07:23;97944.84;;;20.44;59.73
3260;BME280;68938;48.150;14.004;2023-05-21T00:09:50;97950.31;;;20.41;60.56
3260;BME280;68938;48.150;14.004;2023-05-21T00:12:17;97936.81;;;20.47;60.64
3260;BME280;68938;48.150;14.004;2023-05-21T00:14:44;97933.28;;;20.48;60.77
3260;BME280;68938;48.150;14.004;2023-05-21T00:17:11;97931.69;;;20.10;63.06
3260;BME280;68938;48.150;14.004;2023-05-21T00:19:38;97926.53;;;19.98;63.52
3260;BME280;68938;48.150;14.004;2023-05-21T00:22:05;97935.50;;;19.94;64.43
3260;BME280;68938;48.150;14.004;2023-05-21T00:24:32;97925.75;;;20.08;63.80
3260;BME280;68938;48.150;14.004;2023-05-21T00:26:59;97923.91;;;19.98;64.69
3260;BME280;68938;48.150;14.004;2023-05-21T00:29:25;97911.75;;;19.85;65.49
3260;BME280;68938;48.150;14.004;2023-05-21T00:31:52;97911.22;;;19.56;67.02
3260;BME280;68938;48.150;14.004;2023-05-21T00:34:19;97922.06;;;19.37;67.85
3260;BME280;68938;48.150;14.004;2023-05-21T00:36:46;97919.16;;;19.42;68.16
3260;BME280;68938;48.150;14.004;2023-05-21T00:39:13;97908.22;;;19.24;68.81
3260;BME280;68938;48.150;14.004;2023-05-21T00:41:40;97917.31;;;19.55;67.98
3260;BME280;68938;48.150;14.004;2023-05-21T00:44:07;97917.78;;;19.36;68.68
3260;BME280;68938;48.150;14.004;2023-05-21T00:46:35;97908.34;;;19.23;69.50
3260;BME280;68938;48.150;14.004;2023-05-21T00:49:02;97911.44;;;19.28;68.93
3260;BME280;68938;48.150;14.004;2023-05-21T00:51:30;97912.38;;;19.52;67.90
3260;BME280;68938;48.150;14.004;2023-05-21T00:53:57;97907.03;;;19.54;67.56
3260;BME280;68938;48.150;14.004;2023-05-21T00:56:24;97915.56;;;19.69;67.29
3260;BME280;68938;48.150;14.004;2023-05-21T00:58:55;97918.16;;;19.69;67.30
3260;BME280;68938;48.150;14.004;2023-05-21T01:01:22;97913.81;;;19.56;67.79
3260;BME280;68938;48.150;14.004;2023-05-21T01:03:51;97909.09;;;19.61;67.07
3260;BME280;68938;48.150;14.004;2023-05-21T01:06:20;97909.66;;;19.41;67.96
3260;BME280;68938;48.150;14.004;2023-05-21T01:08:46;97909.66;;;19.67;67.44
3260;BME280;68938;48.150;14.004;2023-05-21T01:11:13;97915.91;;;19.64;67.54
3260;BME280;68938;48.150;14.004;2023-05-21T01:13:41;97911.72;;;19.74;66.43
3260;BME280;68938;48.150;14.004;2023-05-21T01:16:09;97921.50;;;19.71;66.45
3260;BME280;68938;48.150;14.004;2023-05-21T01:18:37;97908.13;;;19.38;68.38
3260;BME280;68938;48.150;14.004;2023-05-21T01:21:04;97921.09;;;19.64;67.11
3260;BME280;68938;48.150;14.004;2023-05-21T01:23:32;97914.84;;;19.67;66.89
3260;BME280;68938;48.150;14.004;2023-05-21T01:25:59;97913.16;;;19.78;66.45
3260;BME280;68938;48.150;14.004;2023-05-21T01:28:26;97910.25;;;19.83;66.53
3260;BME280;68938;48.150;14.004;2023-05-21T01:30:54;97910.06;;;19.97;65.42
3260;BME280;68938;48.150;14.004;2023-05-21T01:33:28;97903.13;;;19.85;66.28
3260;BME280;68938;48.150;14.004;2023-05-21T01:36:24;97906.53;;;19.98;65.48
3260;BME280;68938;48.150;14.004;2023-05-21T01:39:05;97908.91;;;19.64;66.98
3260;BME280;68938;48.150;14.004;2023-05-21T01:41:37;97901.13;;;19.88;66.09
3260;BME280;68938;48.150;14.004;2023-05-21T01:44:08;97904.94;;;19.72;66.28
3260;BME280;68938;48.150;14.004;2023-05-21T01:46:36;97903.53;;;19.92;65.29
3260;BME280;68938;48.150;14.004;2023-05-21T01:49:05;97901.13;;;19.88;65.59
3260;BME280;68938;48.150;14.004;2023-05-21T01:51:33;97895.38;;;19.96;65.03
3260;BME280;68938;48.150;14.004;2023-05-21T01:54:01;97885.31;;;19.92;65.30
3260;BME280;68938;48.150;14.004;2023-05-21T01:56:28;97889.16;;;19.86;65.39
3260;BME280;68938;48.150;14.004;2023-05-21T01:58:55;97893.16;;;20.03;64.63
3260;BME280;68938;48.150;14.004;2023-05-21T02:01:22;97888.34;;;20.09;63.94
3260;BME280;68938;48.150;14.004;2023-05-21T02:03:49;97884.03;;;19.97;64.35
3260;BME280;68938;48.150;14.004;2023-05-21T02:06:16;97887.25;;;20.01;64.37
3260;BME280;68938;48.150;14.004;2023-05-21T02:08:43;97885.97;;;20.06;64.08
3260;BME280;68938;48.150;14.004;2023-05-21T02:11:10;97879.22;;;20.04;64.45
3260;BME280;68938;48.150;14.004;2023-05-21T02:13:37;97885.03;;;20.07;63.96
3260;BME280;68938;48.150;14.004;2023-05-21T02:16:04;97882.88;;;20.01;64.83
3260;BME280;68938;48.150;14.004;2023-05-21T02:18:31;97880.59;;;19.97;64.56
3260;BME280;68938;48.150;14.004;2023-05-21T02:20:58;97883.44;;;19.94;64.68
3260;BME280;68938;48.150;14.004;2023-05-21T02:23:25;97874.66;;;19.95;64.74
3260;BME280;68938;48.150;14.004;2023-05-21T02:25:52;97883.03;;;19.87;64.63
3260;BME280;68938;48.150;14.004;2023-05-21T02:28:18;97879.69;;;19.85;64.78
3260;BME280;68938;48.150;14.004;2023-05-21T02:30:45;97871.69;;;19.88;64.99
3260;BME280;68938;48.150;14.004;2023-05-21T02:33:14;97871.22;;;19.70;65.38
3260;BME280;68938;48.150;14.004;2023-05-21T02:35:41;97864.69;;;19.64;66.03
3260;BME280;68938;48.150;14.004;2023-05-21T02:38:08;97867.81;;;19.57;66.18
3260;BME280;68938;48.150;14.004;2023-05-21T02:40:35;97861.66;;;19.58;66.32
3260;BME280;68938;48.150;14.004;2023-05-21T02:43:02;97876.91;;;19.38;66.85
3260;BME280;68938;48.150;14.004;2023-05-21T02:45:29;97873.03;;;19.44;66.59
3260;BME280;68938;48.150;14.004;2023-05-21T02:47:56;97871.94;;;19.10;68.26
3260;BME280;68938;48.150;14.004;2023-05-21T02:50:23;97864.84;;;19.25;67.50
3260;BME280;68938;48.150;14.004;2023-05-21T02:52:50;97876.81;;;19.27;67.15
3260;BME280;68938;48.150;14.004;2023-05-21T02:55:17;97874.63;;;19.21;67.16
3260;BME280;68938;48.150;14.004;2023-05-21T02:57:44;97874.88;;;19.18;67.69
3260;BME280;68938;48.150;14.004;2023-05-21T03:00:11;97868.97;;;18.78;68.97
3260;BME280;68938;48.150;14.004;2023-05-21T03:02:39;97870.00;;;18.75;69.28
3260;BME280;68938;48.150;14.004;2023-05-21T03:05:06;97881.56;;;18.44;71.17
3260;BME280;68938;48.150;14.004;2023-05-21T03:07:33;97884.28;;;18.68;69.95
3260;BME280;68938;48.150;14.004;2023-05-21T03:10:00;97875.75;;;18.66;69.84
3260;BME280;68938;48.150;14.004;2023-05-21T03:12:27;97871.97;;;18.72;69.71
3260;BME280;68938;48.150;14.004;2023-05-21T03:14:54;97883.28;;;18.83;69.51
3260;BME280;68938;48.150;14.004;2023-05-21T03:17:21;97871.84;;;18.73;70.29
3260;BME280;68938;48.150;14.004;2023-05-21T03:19:48;97881.09;;;18.24;71.95
3260;BME280;68938;48.150;14.004;2023-05-21T03:22:15;97879.91;;;18.43;70.73
3260;BME280;68938;48.150;14.004;2023-05-21T03:24:41;97878.81;;;18.20;71.96
3260;BME280;68938;48.150;14.004;2023-05-21T03:27:09;97872.59;;;18.22;72.07
3260;BME280;68938;48.150;14.004;2023-05-21T03:29:35;97879.56;;;18.35;71.18
3260;BME280;68938;48.150;14.004;2023-05-21T03:32:03;97875.97;;;18.50;70.91
3260;BME280;68938;48.150;14.004;2023-05-21T03:34:30;97875.25;;;18.61;70.63
3260;BME280;68938;48.150;14.004;2023-05-21T03:36:57;97872.75;;;18.46;70.61
3260;BME280;68938;48.150;14.004;2023-05-21T03:39:24;97885.72;;;18.59;70.87
3260;BME280;68938;48.150;14.004;2023-05-21T03:41:51;97869.22;;;18.60;69.98
3260;BME280;68938;48.150;14.004;2023-05-21T03:44:18;97874.09;;;18.52;70.73
3260;BME280;68938;48.150;14.004;2023-05-21T03:46:45;97884.47;;;18.52;70.76
3260;BME280;68938;48.150;14.004;2023-05-21T03:49:12;97885.09;;;18.56;70.47
3260;BME280;68938;48.150;14.004;2023-05-21T03:51:40;97882.72;;;18.65;69.75
3260;BME280;68938;48.150;14.004;2023-05-21T03:54:06;97881.03;;;18.52;70.62
3260;BME280;68938;48.150;14.004;2023-05-21T03:56:33;97883.88;;;18.61;70.19
3260;BME280;68938;48.150;14.004;2023-05-21T03:59:00;97885.84;;;18.58;70.40
3260;BME280;68938;48.150;14.004;2023-05-21T04:01:27;97882.41;;;18.57;70.71
3260;BME280;68938;48.150;14.004;2023-05-21T04:03:54;97890.41;;;18.54;71.16
3260;BME280;68938;48.150;14.004;2023-05-21T04:06:21;97886.28;;;18.24;71.85
3260;BME280;68938;48.150;14.004;2023-05-21T04:08:49;97898.72;;;18.46;71.25
3260;BME280;68938;48.150;14.004;2023-05-21T04:11:16;97888.09;;;18.37;71.59
3260;BME280;68938;48.150;14.004;2023-05-21T04:13:43;97896.09;;;18.07;73.09
3260;BME280;68938;48.150;14.004;2023-05-21T04:16:10;97897.38;;;18.14;72.75
3260;BME280;68938;48.150;14.004;2023-05-21T04:18:37;97893.94;;;18.13;73.43
3260;BME280;68938;48.150;14.004;2023-05-21T04:21:03;97894.25;;;18.09;73.53
3260;BME280;68938;48.150;14.004;2023-05-21T04:23:30;97893.44;;;17.94;74.36
3260;BME280;68938;48.150;14.004;2023-05-21T04:25:57;97884.84;;;17.93;74.26
3260;BME280;68938;48.150;14.004;2023-05-21T04:28:24;97887.50;;;18.06;73.78
3260;BME280;68938;48.150;14.004;2023-05-21T04:30:51;97900.06;;;18.12;73.52
3260;BME280;68938;48.150;14.004;2023-05-21T04:33:18;97894.94;;;18.38;72.41
3260;BME280;68938;48.150;14.004;2023-05-21T04:35:46;97890.41;;;18.14;73.68
3260;BME280;68938;48.150;14.004;2023-05-21T04:38:17;97896.41;;;18.42;72.70
3260;BME280;68938;48.150;14.004;2023-05-21T04:40:50;97906.66;;;18.70;71.05
3260;BME280;68938;48.150;14.004;2023-05-21T04:43:18;97903.19;;;18.57;71.53
3260;BME280;68938;48.150;14.004;2023-05-21T04:45:46;97906.56;;;18.32;72.49
3260;BME280;68938;48.150;14.004;2023-05-21T04:48:12;97902.22;;;18.45;72.30
3260;BME280;68938;48.150;14.004;2023-05-21T04:50:39;97907.56;;;18.69;71.19
3260;BME280;68938;48.150;14.004;2023-05-21T04:53:06;97913.22;;;18.89;70.70
3260;BME280;68938;48.150;14.004;2023-05-21T04:55:34;97908.97;;;18.75;71.06
3260;BME280;68938;48.150;14.004;2023-05-21T04:58:01;97916.56;;;19.04;70.25
3260;BME280;68938;48.150;14.004;2023-05-21T05:00:28;97915.22;;;18.98;69.94
3260;BME280;68938;48.150;14.004;2023-05-21T05:02:55;97921.56;;;19.20;69.36
3260;BME280;68938;48.150;14.004;2023-05-21T05:05:22;97918.94;;;19.20;69.38
3260;BME280;68938;48.150;14.004;2023-05-21T05:07:49;97913.22;;;18.89;70.04
3260;BME280;68938;48.150;14.004;2023-05-21T05:10:16;97914.06;;;19.02;69.22
3260;BME280;68938;48.150;14.004;2023-05-21T05:12:43;97911.22;;;19.31;68.64
3260;BME280;68938;48.150;14.004;2023-05-21T05:15:10;97914.91;;;19.15;69.22
3260;BME280;68938;48.150;14.004;2023-05-21T05:17:37;97907.59;;;19.21;68.95
3260;BME280;68938;48.150;14.004;2023-05-21T05:20:06;97912.59;;;19.24;68.88
3260;BME280;68938;48.150;14.004;2023-05-21T05:22:33;97905.53;;;19.26;68.96
3260;BME280;68938;48.150;14.004;2023-05-21T05:25:00;97904.00;;;19.60;67.55
3260;BME280;68938;48.150;14.004;2023-05-21T05:27:27;97910.28;;;19.45;67.98
3260;BME280;68938;48.150;14.004;2023-05-21T05:29:54;97894.03;;;19.67;67.14
3260;BME280;68938;48.150;14.004;2023-05-21T05:32:21;97893.53;;;19.49;67.83
3260;BME280;68938;48.150;14.004;2023-05-21T05:34:48;97886.63;;;19.73;66.80
3260;BME280;68938;48.150;14.004;2023-05-21T05:37:15;97888.28;;;19.98;66.24
3260;BME280;68938;48.150;14.004;2023-05-21T05:39:42;97879.88;;;19.71;66.45
3260;BME280;68938;48.150;14.004;2023-05-21T05:42:09;97888.56;;;20.06;65.63
3260;BME280;68938;48.150;14.004;2023-05-21T05:44:36;97889.94;;;20.23;65.20
3260;BME280;68938;48.150;14.004;2023-05-21T05:47:03;97889.63;;;20.28;64.75
3260;BME280;68938;48.150;14.004;2023-05-21T05:49:30;97887.47;;;20.22;65.36
3260;BME280;68938;48.150;14.004;2023-05-21T05:51:57;97889.03;;;20.35;64.66
3260;BME280;68938;48.150;14.004;2023-05-21T05:54:24;97892.31;;;20.26;64.92
3260;BME280;68938;48.150;14.004;2023-05-21T05:56:51;97888.81;;;20.63;63.84
3260;BME280;68938;48.150;14.004;2023-05-21T05:59:18;97886.59;;;20.80;62.89
3260;BME280;68938;48.150;14.004;2023-05-21T06:01:45;97890.00;;;20.81;63.06
3260;BME280;68938;48.150;14.004;2023-05-21T06:04:12;97880.41;;;20.81;62.50
3260;BME280;68938;48.150;14.004;2023-05-21T06:06:39;97884.47;;;20.97;62.11
3260;BME280;68938;48.150;14.004;2023-05-21T06:09:06;97871.66;;;20.82;61.87
3260;BME280;68938;48.150;14.004;2023-05-21T06:11:33;97880.56;;;20.91;62.75
3260;BME280;68938;48.150;14.004;2023-05-21T06:14:00;97881.72;;;20.87;62.65
3260;BME280;68938;48.150;14.004;2023-05-21T06:16:27;97871.06;;;21.01;63.71
3260;BME280;68938;48.150;14.004;2023-05-21T06:18:54;97877.56;;;20.73;62.91
3260;BME280;68938;48.150;14.004;2023-05-21T06:21:21;97872.22;;;20.75;63.21
3260;BME280;68938;48.150;14.004;2023-05-21T06:23:48;97875.59;;;21.11;62.79
3260;BME280;68938;48.150;14.004;2023-05-21T06:26:15;97869.41;;;21.23;61.45
3260;BME280;68938;48.150;14.004;2023-05-21T06:28:42;97869.19;;;21.48;61.46
3260;BME280;68938;48.150;14.004;2023-05-21T06:31:09;97866.56;;;21.60;61.10
3260;BME280;68938;48.150;14.004;2023-05-21T06:33:36;97872.59;;;21.71;60.36
3260;BME280;68938;48.150;14.004;2023-05-21T06:36:04;97864.88;;;21.70;60.82
3260;BME280;68938;48.150;14.004;2023-05-21T06:38:31;97866.03;;;21.88;59.90
3260;BME280;68938;48.150;14.004;2023-05-21T06:40:58;97853.47;;;21.82;59.55
3260;BME280;68938;48.150;14.004;2023-05-21T06:43:25;97860.47;;;21.82;58.82
3260;BME280;68938;48.150;14.004;2023-05-21T06:45:51;97850.56;;;21.96;59.79
3260;BME280;68938;48.150;14.004;2023-05-21T06:48:18;97857.47;;;21.86;59.75
3260;BME280;68938;48.150;14.004;2023-05-21T06:50:45;97859.56;;;22.04;59.49
3260;BME280;68938;48.150;14.004;2023-05-21T06:53:12;97853.91;;;22.31;57.67
3260;BME280;68938;48.150;14.004;2023-05-21T06:55:39;97846.06;;;22.31;57.97
3260;BME280;68938;48.150;14.004;2023-05-21T06:58:06;97854.06;;;22.39;57.56
3260;BME280;68938;48.150;14.004;2023-05-21T07:00:33;97858.53;;;21.95;58.63
3260;BME280;68938;48.150;14.004;2023-05-21T07:03:00;97853.75;;;22.32;58.17
3260;BME280;68938;48.150;14.004;2023-05-21T07:05:27;97853.00;;;22.62;56.87
3260;BME280;68938;48.150;14.004;2023-05-21T07:07:54;97863.25;;;22.75;57.02
3260;BME280;68938;48.150;14.004;2023-05-21T07:10:21;97859.97;;;22.94;57.07
3260;BME280;68938;48.150;14.004;2023-05-21T07:12:48;97838.44;;;23.21;55.27
3260;BME280;68938;48.150;14.004;2023-05-21T07:15:14;97844.31;;;23.54;54.76
3260;BME280;68938;48.150;14.004;2023-05-21T07:17:41;97844.72;;;23.59;54.33
3260;BME280;68938;48.150;14.004;2023-05-21T07:20:09;97842.97;;;23.59;54.23
3260;BME280;68938;48.150;14.004;2023-05-21T07:22:37;97848.25;;;23.88;53.92
3260;BME280;68938;48.150;14.004;2023-05-21T07:25:05;97837.16;;;23.65;53.34
3260;BME280;68938;48.150;14.004;2023-05-21T07:27:32;97840.13;;;24.01;52.80
3260;BME280;68938;48.150;14.004;2023-05-21T07:29:59;97838.88;;;23.96;52.93
3260;BME280;68938;48.150;14.004;2023-05-21T07:32:26;97834.34;;;23.98;51.93
3260;BME280;68938;48.150;14.004;2023-05-21T07:34:54;97835.28;;;23.68;52.13
3260;BME280;68938;48.150;14.004;2023-05-21T07:37:21;97830.03;;;23.68;52.90
3260;BME280;68938;48.150;14.004;2023-05-21T07:39:48;97841.56;;;23.55;53.15
3260;BME280;68938;48.150;14.004;2023-05-21T07:42:15;97825.84;;;23.55;53.70
3260;BME280;68938;48.150;14.004;2023-05-21T07:44:42;97841.06;;;23.71;52.51
3260;BME280;68938;48.150;14.004;2023-05-21T07:47:09;97831.28;;;23.93;51.98
3260;BME280;68938;48.150;14.004;2023-05-21T07:49:35;97830.88;;;24.17;51.21
3260;BME280;68938;48.150;14.004;2023-05-21T07:52:03;97835.56;;;24.32;51.74
3260;BME280;68938;48.150;14.004;2023-05-21T07:54:30;97830.91;;;24.46;50.45
3260;BME280;68938;48.150;14.004;2023-05-21T07:56:57;97823.31;;;24.43;50.39
3260;BME280;68938;48.150;14.004;2023-05-21T07:59:24;97835.94;;;24.76;49.80
3260;BME280;68938;48.150;14.004;2023-05-21T08:01:51;97833.91;;;24.98;49.84
3260;BME280;68938;48.150;14.004;2023-05-21T08:04:18;97829.72;;;25.42;49.21
3260;BME280;68938;48.150;14.004;2023-05-21T08:06:45;97827.88;;;25.70;48.16
3260;BME280;68938;48.150;14.004;2023-05-21T08:09:12;97832.53;;;25.86;47.28
3260;BME280;68938;48.150;14.004;2023-05-21T08:11:39;97825.22;;;25.98;47.73
3260;BME280;68938;48.150;14.004;2023-05-21T08:14:06;97825.00;;;26.27;47.34
3260;BME280;68938;48.150;14.004;2023-05-21T08:16:33;97828.28;;;26.11;46.68
3260;BME280;68938;48.150;14.004;2023-05-21T08:19:00;97818.03;;;25.82;47.18
3260;BME280;68938;48.150;14.004;2023-05-21T08:21:27;97820.09;;;25.79;47.22
3260;BME280;68938;48.150;14.004;2023-05-21T08:23:54;97824.09;;;26.00;46.42
3260;BME280;68938;48.150;14.004;2023-05-21T08:26:21;97825.63;;;25.85;46.22
3260;BME280;68938;48.150;14.004;2023-05-21T08:28:48;97814.50;;;26.09;46.74
3260;BME280;68938;48.150;14.004;2023-05-21T08:31:17;97820.47;;;26.37;46.64
3260;BME280;68938;48.150;14.004;2023-05-21T08:33:51;97802.81;;;26.12;46.10
3260;BME280;68938;48.150;14.004;2023-05-21T08:36:19;97818.75;;;26.10;46.29
3260;BME280;68938;48.150;14.004;2023-05-21T08:38:46;97829.13;;;26.12;45.60
3260;BME280;68938;48.150;14.004;2023-05-21T08:41:13;97820.16;;;26.40;47.12
3260;BME280;68938;48.150;14.004;2023-05-21T08:43:41;97808.69;;;26.67;46.23
3260;BME280;68938;48.150;14.004;2023-05-21T08:46:09;97809.81;;;26.65;45.70
3260;BME280;68938;48.150;14.004;2023-05-21T08:48:36;97812.50;;;26.47;44.89
3260;BME280;68938;48.150;14.004;2023-05-21T08:51:03;97815.81;;;26.75;45.87
3260;BME280;68938;48.150;14.004;2023-05-21T08:53:34;97814.91;;;26.66;44.20
3260;BME280;68938;48.150;14.004;2023-05-21T08:56:01;97814.81;;;26.76;43.19
3260;BME280;68938;48.150;14.004;2023-05-21T08:58:31;97818.44;;;26.75;44.16
3260;BME280;68938;48.150;14.004;2023-05-21T09:00:59;97807.50;;;26.62;43.22
3260;BME280;68938;48.150;14.004;2023-05-21T09:03:26;97815.25;;;26.63;42.76
3260;BME280;68938;48.150;14.004;2023-05-21T09:05:55;97817.22;;;26.43;43.37
3260;BME280;68938;48.150;14.004;2023-05-21T09:08:34;97807.19;;;26.65;43.10
3260;BME280;68938;48.150;14.004;2023-05-21T09:11:01;97815.88;;;26.57;43.41
3260;BME280;68938;48.150;14.004;2023-05-21T09:13:30;97813.69;;;26.79;43.85
3260;BME280;68938;48.150;14.004;2023-05-21T09:15:58;97813.47;;;26.98;43.06
3260;BME280;68938;48.150;14.004;2023-05-21T09:18:25;97810.34;;;27.03;42.63
3260;BME280;68938;48.150;14.004;2023-05-21T09:20:52;97803.94;;;27.39;42.35
3260;BME280;68938;48.150;14.004;2023-05-21T09:23:19;97814.28;;;27.41;41.90
3260;BME280;68938;48.150;14.004;2023-05-21T09:25:47;97818.69;;;27.24;41.70
3260;BME280;68938;48.150;14.004;2023-05-21T09:28:16;97830.03;;;27.67;41.34
3260;BME280;68938;48.150;14.004;2023-05-21T09:33:26;97809.66;;;27.27;41.49
3260;BME280;68938;48.150;14.004;2023-05-21T09:35:54;97801.34;;;27.64;41.86
3260;BME280;68938;48.150;14.004;2023-05-21T09:38:22;97805.16;;;27.70;41.24
3260;BME280;68938;48.150;14.004;2023-05-21T09:40:54;97801.19;;;27.74;39.81
3260;BME280;68938;48.150;14.004;2023-05-21T09:43:21;97806.81;;;27.79;41.37
3260;BME280;68938;48.150;14.004;2023-05-21T09:45:55;97807.47;;;27.73;40.22
3260;BME280;68938;48.150;14.004;2023-05-21T09:48:38;97800.09;;;28.09;41.08
3260;BME280;68938;48.150;14.004;2023-05-21T09:51:13;97802.69;;;28.58;39.49
3260;BME280;68938;48.150;14.004;2023-05-21T09:53:53;97805.50;;;28.73;38.32
3260;BME280;68938;48.150;14.004;2023-05-21T09:56:22;97803.91;;;28.31;37.09
3260;BME280;68938;48.150;14.004;2023-05-21T09:59:02;97802.53;;;28.76;38.30
3260;BME280;68938;48.150;14.004;2023-05-21T10:01:30;97793.41;;;28.87;37.16
3260;BME280;68938;48.150;14.004;2023-05-21T10:04:00;97799.50;;;28.87;36.35
3260;BME280;68938;48.150;14.004;2023-05-21T10:06:30;97784.53;;;28.71;35.32
3260;BME280;68938;48.150;14.004;2023-05-21T10:08:59;97791.00;;;28.69;35.99
3260;BME280;68938;48.150;14.004;2023-05-21T10:11:32;97791.25;;;28.82;36.66
3260;BME280;68938;48.150;14.004;2023-05-21T10:14:03;97788.91;;;29.03;36.49
3260;BME280;68938;48.150;14.004;2023-05-21T10:16:32;97786.81;;;28.83;35.98
3260;BME280;68938;48.150;14.004;2023-05-21T10:19:01;97789.13;;;28.86;34.49
3260;BME280;68938;48.150;14.004;2023-05-21T10:21:29;97783.84;;;28.77;35.63
3260;BME280;68938;48.150;14.004;2023-05-21T10:23:56;97781.81;;;29.04;34.57
3260;BME280;68938;48.150;14.004;2023-05-21T10:26:24;97783.22;;;29.54;35.76
3260;BME280;68938;48.150;14.004;2023-05-21T10:28:51;97784.38;;;29.20;34.68
3260;BME280;68938;48.150;14.004;2023-05-21T10:31:21;97775.53;;;29.05;34.13
3260;BME280;68938;48.150;14.004;2023-05-21T10:33:51;97782.72;;;29.19;33.62
3260;BME280;68938;48.150;14.004;2023-05-21T10:36:19;97762.94;;;29.15;34.31
3260;BME280;68938;48.150;14.004;2023-05-21T10:38:46;97763.94;;;29.45;34.62
3260;BME280;68938;48.150;14.004;2023-05-21T10:41:18;97759.78;;;29.51;33.66
3260;BME280;68938;48.150;14.004;2023-05-21T10:44:14;97771.16;;;29.51;33.50
3260;BME280;68938;48.150;14.004;2023-05-21T10:51:28;97765.34;;;29.64;33.89
3260;BME280;68938;48.150;14.004;2023-05-21T10:56:59;97768.06;;;29.48;34.65
3260;BME280;68938;48.150;14.004;2023-05-21T10:59:54;97757.50;;;29.94;33.46
3260;BME280;68938;48.150;14.004;2023-05-21T11:02:25;97765.41;;;30.17;34.81
3260;BME280;68938;48.150;14.004;2023-05-21T11:04:59;97769.72;;;30.18;35.33
3260;BME280;68938;48.150;14.004;2023-05-21T11:07:55;97760.34;;;30.07;34.15
3260;BME280;68938;48.150;14.004;2023-05-21T11:13:15;97753.91;;;29.87;35.44
3260;BME280;68938;48.150;14.004;2023-05-21T11:29:14;97751.38;;;29.70;35.56
3260;BME280;68938;48.150;14.004;2023-05-21T11:31:47;97752.78;;;29.58;35.24
3260;BME280;68938;48.150;14.004;2023-05-21T11:34:25;97741.91;;;29.61;35.50
3260;BME280;68938;48.150;14.004;2023-05-21T11:39:45;97752.25;;;30.09;35.57
3260;BME280;68938;48.150;14.004;2023-05-21T11:42:30;97741.09;;;29.98;35.07
3260;BME280;68938;48.150;14.004;2023-05-21T11:45:00;97736.22;;;29.87;35.54
3260;BME280;68938;48.150;14.004;2023-05-21T11:47:29;97739.75;;;30.17;36.11
3260;BME280;68938;48.150;14.004;2023-05-21T11:49:59;97748.19;;;30.21;35.21
3260;BME280;68938;48.150;14.004;2023-05-21T11:52:29;97733.47;;;30.18;35.40
3260;BME280;68938;48.150;14.004;2023-05-21T11:54:56;97734.25;;;30.04;35.02
3260;BME280;68938;48.150;14.004;2023-05-21T11:57:28;97739.53;;;30.04;35.25
3260;BME280;68938;48.150;14.004;2023-05-21T11:59:55;97741.47;;;29.95;34.61
3260;BME280;68938;48.150;14.004;2023-05-21T12:02:29;97741.59;;;29.79;33.22
3260;BME280;68938;48.150;14.004;2023-05-21T12:04:58;97733.69;;;29.94;34.71
3260;BME280;68938;48.150;14.004;2023-05-21T12:07:28;97730.66;;;29.82;34.21
3260;BME280;68938;48.150;14.004;2023-05-21T12:09:55;97723.75;;;29.96;34.15
3260;BME280;68938;48.150;14.004;2023-05-21T12:12:27;97729.22;;;29.48;33.67
3260;BME280;68938;48.150;14.004;2023-05-21T12:15:11;97727.44;;;29.72;34.50
3260;BME280;68938;48.150;14.004;2023-05-21T12:17:38;97729.53;;;29.77;34.80
3260;BME280;68938;48.150;14.004;2023-05-21T12:20:06;97730.06;;;29.95;35.01
3260;BME280;68938;48.150;14.004;2023-05-21T12:22:33;97732.16;;;29.53;33.98
3260;BME280;68938;48.150;14.004;2023-05-21T12:25:00;97730.13;;;29.64;33.53
3260;BME280;68938;48.150;14.004;2023-05-21T12:27:27;97735.91;;;29.36;35.69
3260;BME280;68938;48.150;14.004;2023-05-21T12:29:54;97738.25;;;29.62;35.71
3260;BME280;68938;48.150;14.004;2023-05-21T12:32:21;97730.13;;;29.64;35.00
3260;BME280;68938;48.150;14.004;2023-05-21T12:34:50;97721.16;;;29.42;34.79
3260;BME280;68938;48.150;14.004;2023-05-21T12:37:28;97725.56;;;29.49;35.51
3260;BME280;68938;48.150;14.004;2023-05-21T12:40:00;97732.94;;;29.62;35.78
3260;BME280;68938;48.150;14.004;2023-05-21T12:42:30;97732.28;;;29.60;35.96
3260;BME280;68938;48.150;14.004;2023-05-21T12:44:58;97730.34;;;29.23;35.45
3260;BME280;68938;48.150;14.004;2023-05-21T12:47:26;97718.91;;;29.08;36.73
3260;BME280;68938;48.150;14.004;2023-05-21T12:49:56;97727.72;;;29.23;37.49
3260;BME280;68938;48.150;14.004;2023-05-21T12:52:24;97724.84;;;29.10;35.95
3260;BME280;68938;48.150;14.004;2023-05-21T12:54:53;97717.28;;;29.29;36.37
3260;BME280;68938;48.150;14.004;2023-05-21T12:57:25;97720.03;;;29.36;37.21
3260;BME280;68938;48.150;14.004;2023-05-21T12:59:57;97717.91;;;29.09;37.28
3260;BME280;68938;48.150;14.004;2023-05-21T13:02:26;97716.22;;;29.39;35.90
3260;BME280;68938;48.150;14.004;2023-05-21T13:05:09;97719.91;;;29.29;36.55
3260;BME280;68938;48.150;14.004;2023-05-21T13:07:38;97709.81;;;29.33;35.27
3260;BME280;68938;48.150;14.004;2023-05-21T13:10:05;97719.59;;;29.79;34.81
3260;BME280;68938;48.150;14.004;2023-05-21T13:12:33;97720.97;;;29.74;33.96
3260;BME280;68938;48.150;14.004;2023-05-21T13:15:02;97728.34;;;30.02;35.41
3260;BME280;68938;48.150;14.004;2023-05-21T13:17:31;97725.53;;;29.81;35.70
3260;BME280;68938;48.150;14.004;2023-05-21T13:20:12;97727.00;;;29.83;36.32
3260;BME280;68938;48.150;14.004;2023-05-21T13:22:43;97714.47;;;30.15;35.16
3260;BME280;68938;48.150;14.004;2023-05-21T13:25:12;97720.91;;;29.97;34.01
3260;BME280;68938;48.150;14.004;2023-05-21T13:27:41;97721.63;;;29.91;35.06
3260;BME280;68938;48.150;14.004;2023-05-21T13:30:09;97718.72;;;30.01;34.39
3260;BME280;68938;48.150;14.004;2023-05-21T13:32:37;97724.34;;;29.83;34.10
3260;BME280;68938;48.150;14.004;2023-05-21T13:35:05;97718.06;;;29.84;34.32